Time;durP1;ratioP1;P1;durP2;ratioP2;P2;SDS_P1;SDS_P2;PMS_P1;PMS_P2;Temp;Humidity;BMP_temperature;BMP_pressure;BME280_temperature;BME280_humidity;BME280_pressure;Samples;Min_cycle;Max_cycle;Signal;HPM_P1;HPM_P2
2023/11/20 00:00:12;;;;;;;;;;;;;;;-6.34;71.22;100033.63;4981437;28;19947;-83
2023/11/20 00:02:38;;;;;;;;;;;;;;;-6.32;71.08;100036.97;5008722;28;20476;-84
2023/11/20 00:05:06;;;;;;;;;;;;;;;-6.36;70.98;100038.28;4989665;28;19925;-83
2023/11/20 00:07:32;;;;;;;;;;;;;;;-6.75;71.26;99981.03;5005984;28;19926;-85
2023/11/20 00:09:58;;;;;;;;;;;;;;;-6.44;71.10;100028.44;5066245;28;20032;-84
2023/11/20 00:12:24;;;;;;;;;;;;;;;-6.49;70.87;100020.91;5006279;28;19952;-84
2023/11/20 00:14:50;;;;;;;;;;;;;;;-6.57;70.78;100023.50;5007673;28;19934;-84
2023/11/20 00:17:16;;;;;;;;;;;;;;;-6.54;70.63;100028.53;5005846;28;19938;-83
2023/11/20 00:19:42;;;;;;;;;;;;;;;-6.55;70.56;100024.22;4997249;28;19925;-74
2023/11/20 00:22:10;;;;;;;;;;;;;;;-6.52;70.34;100013.25;5002716;28;19933;-74
2023/11/20 00:24:37;;;;;;;;;;;;;;;-6.52;70.15;100015.91;4999398;28;20031;-74
2023/11/20 00:27:03;;;;;;;;;;;;;;;-6.57;70.09;100008.41;5000512;28;19925;-83
2023/11/20 00:29:30;;;;;;;;;;;;;;;-6.56;69.99;100011.88;5014569;28;19925;-82
2023/11/20 00:31:56;;;;;;;;;;;;;;;-6.56;69.97;100009.22;5000666;28;20023;-82
2023/11/20 00:34:22;;;;;;;;;;;;;;;-6.63;70.18;100003.72;5001270;28;20452;-82
2023/11/20 00:36:48;;;;;;;;;;;;;;;-6.64;69.77;100003.84;5000757;28;19926;-82
2023/11/20 00:39:15;;;;;;;;;;;;;;;-6.64;69.83;100009.19;4995603;28;20384;-82
2023/11/20 00:41:41;;;;;;;;;;;;;;;-6.62;70.26;100005.38;4999029;28;19925;-82
2023/11/20 00:44:07;;;;;;;;;;;;;;;-6.57;70.35;100004.88;4998565;28;19993;-81
2023/11/20 00:46:33;;;;;;;;;;;;;;;-6.56;70.35;100006.56;4978028;28;19930;-82
2023/11/20 00:49:01;;;;;;;;;;;;;;;-6.56;70.60;100004.75;5002489;28;19925;-84
2023/11/20 00:51:29;;;;;;;;;;;;;;;-6.52;70.24;100002.59;5003314;28;19925;-82
2023/11/20 00:53:55;;;;;;;;;;;;;;;-6.49;70.53;100001.44;4980655;28;19925;-82
2023/11/20 00:56:22;;;;;;;;;;;;;;;-6.53;70.36;99994.75;5005591;28;20032;-73
2023/11/20 00:58:48;;;;;;;;;;;;;;;-6.55;69.86;99994.94;4997830;28;20027;-74
2023/11/20 01:01:14;;;;;;;;;;;;;;;-6.49;70.08;99996.09;4999775;28;20155;-81
2023/11/20 01:03:40;;;;;;;;;;;;;;;-6.49;70.09;99991.63;4999324;28;19925;-82
2023/11/20 01:06:08;;;;;;;;;;;;;;;-6.51;70.03;99996.28;5001719;28;19976;-82
2023/11/20 01:08:34;;;;;;;;;;;;;;;-6.59;69.94;99999.75;4992239;28;19932;-83
2023/11/20 01:11:01;;;;;;;;;;;;;;;-6.65;69.44;99981.72;5004954;28;20191;-83
2023/11/20 01:13:28;;;;;;;;;;;;;;;-6.63;69.54;99997.53;4991332;28;20380;-84
2023/11/20 01:15:54;;;;;;;;;;;;;;;-6.68;70.17;99992.69;5002868;28;19936;-83
2023/11/20 01:18:20;;;;;;;;;;;;;;;-6.65;70.12;99994.22;4999741;28;19925;-83
2023/11/20 01:20:46;;;;;;;;;;;;;;;-6.61;70.24;99998.22;5002478;28;19968;-82
2023/11/20 01:23:11;;;;;;;;;;;;;;;-6.55;70.28;99990.44;5000337;28;19957;-83
2023/11/20 01:25:39;;;;;;;;;;;;;;;-6.65;69.73;99992.38;5000006;28;19926;-83
2023/11/20 01:28:05;;;;;;;;;;;;;;;-6.60;69.91;99999.88;4981241;28;19925;-83
2023/11/20 01:30:33;;;;;;;;;;;;;;;-6.64;70.29;99999.34;5003195;28;19929;-83
2023/11/20 01:32:59;;;;;;;;;;;;;;;-6.64;70.57;99993.22;5001909;28;19926;-85
2023/11/20 01:35:25;;;;;;;;;;;;;;;-6.67;70.54;99999.69;5001472;28;20003;-83
2023/11/20 01:37:51;;;;;;;;;;;;;;;-6.63;70.34;100003.72;5003112;28;19926;-85
2023/11/20 01:40:16;;;;;;;;;;;;;;;-6.55;70.38;99998.41;5001326;28;20428;-83
2023/11/20 01:42:43;;;;;;;;;;;;;;;-6.54;69.97;99993.94;5002183;28;19933;-74
2023/11/20 01:45:10;;;;;;;;;;;;;;;-6.60;70.16;99995.41;5002113;28;19925;-74
2023/11/20 01:47:38;;;;;;;;;;;;;;;-6.65;70.19;99996.88;5003372;28;19930;-74
2023/11/20 01:50:05;;;;;;;;;;;;;;;-6.62;70.07;99989.41;4997297;28;19961;-74
2023/11/20 01:52:32;;;;;;;;;;;;;;;-6.62;69.73;99999.22;5002565;28;20416;-74
2023/11/20 01:54:58;;;;;;;;;;;;;;;-6.63;69.40;99992.22;4998837;28;19960;-74
2023/11/20 01:57:24;;;;;;;;;;;;;;;-6.66;70.17;99972.09;4979498;28;20416;-75
2023/11/20 01:59:50;;;;;;;;;;;;;;;-6.58;69.87;99984.59;4993480;28;20422;-73
2023/11/20 02:02:16;;;;;;;;;;;;;;;-6.63;69.92;99986.91;4998257;28;20440;-74
2023/11/20 02:04:45;;;;;;;;;;;;;;;-6.61;70.30;99987.56;5002864;28;19925;-82
2023/11/20 02:07:11;;;;;;;;;;;;;;;-6.62;70.51;99988.56;5000405;28;20021;-82
2023/11/20 02:09:37;;;;;;;;;;;;;;;-6.59;70.85;99986.44;4977951;28;19926;-82
2023/11/20 02:12:05;;;;;;;;;;;;;;;-6.63;71.05;99990.41;4996494;28;20429;-82
2023/11/20 02:14:31;;;;;;;;;;;;;;;-6.65;71.28;100000.34;4999371;28;20024;-83
2023/11/20 02:16:57;;;;;;;;;;;;;;;-6.63;70.84;99998.41;5003460;28;20028;-83
2023/11/20 02:19:23;;;;;;;;;;;;;;;-6.63;70.97;99992.22;4998910;28;19969;-74
2023/11/20 02:21:51;;;;;;;;;;;;;;;-6.63;71.29;99995.72;4996875;28;19948;-74
2023/11/20 02:24:17;;;;;;;;;;;;;;;-6.63;70.87;99994.88;4957321;28;19925;-73
2023/11/20 02:26:50;;;;;;;;;;;;;;;-6.62;71.24;100001.88;4995447;28;20210;-74
2023/11/20 02:29:21;;;;;;;;;;;;;;;-6.64;70.63;100003.84;4998090;28;20000;-74
2023/11/20 02:31:48;;;;;;;;;;;;;;;-6.66;70.80;100013.81;5000798;28;19925;-75
2023/11/20 02:34:16;;;;;;;;;;;;;;;-6.68;70.75;100006.00;4981528;28;20028;-74
2023/11/20 02:36:42;;;;;;;;;;;;;;;-6.72;70.83;100009.97;4996677;28;19925;-74
2023/11/20 02:39:09;;;;;;;;;;;;;;;-6.77;70.59;100014.94;4999951;28;20303;-73
2023/11/20 02:41:36;;;;;;;;;;;;;;;-6.78;71.05;100007.94;4993018;28;19979;-74
2023/11/20 02:44:03;;;;;;;;;;;;;;;-6.76;70.96;100008.63;5007952;28;19925;-74
2023/11/20 02:46:28;;;;;;;;;;;;;;;-6.79;70.90;100015.06;4998190;28;19929;-74
2023/11/20 02:48:56;;;;;;;;;;;;;;;-6.77;70.87;100013.09;5002509;28;19933;-74
2023/11/20 02:51:22;;;;;;;;;;;;;;;-6.78;71.15;100019.41;4999685;28;19929;-74
2023/11/20 02:53:47;;;;;;;;;;;;;;;-6.76;71.37;100006.78;5018048;28;19925;-74
2023/11/20 02:56:13;;;;;;;;;;;;;;;-6.75;71.26;100005.78;5002360;28;19925;-75
2023/11/20 02:58:39;;;;;;;;;;;;;;;-6.70;71.42;100006.16;4998569;28;20438;-74
2023/11/20 03:01:06;;;;;;;;;;;;;;;-6.69;71.02;100004.31;5009137;28;19925;-75
2023/11/20 03:03:33;;;;;;;;;;;;;;;-6.66;71.23;100005.84;5000995;28;19986;-74
2023/11/20 03:06:00;;;;;;;;;;;;;;;-6.68;71.53;100010.50;5000852;28;20332;-75
2023/11/20 03:08:26;;;;;;;;;;;;;;;-6.76;71.94;100017.41;4998899;28;19925;-76
2023/11/20 03:10:52;;;;;;;;;;;;;;;-6.75;71.98;100018.25;5000449;28;19944;-74
2023/11/20 03:13:18;;;;;;;;;;;;;;;-6.71;71.65;100003.66;5012150;28;20408;-74
2023/11/20 03:15:44;;;;;;;;;;;;;;;-6.71;71.21;100015.13;5011188;28;20427;-74
2023/11/20 03:18:09;;;;;;;;;;;;;;;-6.72;71.30;100017.94;5010058;28;20272;-75
2023/11/20 03:20:35;;;;;;;;;;;;;;;-6.74;71.36;100012.75;5018772;28;19937;-75
2023/11/20 03:23:02;;;;;;;;;;;;;;;-6.66;70.69;100011.16;4991732;28;20119;-74
2023/11/20 03:25:28;;;;;;;;;;;;;;;-6.63;70.69;100016.16;4998990;28;19925;-74
2023/11/20 03:27:54;;;;;;;;;;;;;;;-6.67;70.71;100014.81;4980835;28;19965;-74
2023/11/20 03:30:22;;;;;;;;;;;;;;;-6.69;70.90;100009.66;5014025;28;19968;-83
2023/11/20 03:32:47;;;;;;;;;;;;;;;-6.64;71.09;100011.84;5012404;28;20568;-84
2023/11/20 03:35:13;;;;;;;;;;;;;;;-6.67;71.59;100012.97;5008328;28;20432;-84
2023/11/20 03:37:40;;;;;;;;;;;;;;;-6.73;71.31;100013.63;5004181;28;19925;-84
2023/11/20 03:40:08;;;;;;;;;;;;;;;-6.75;71.26;99995.13;5024260;28;19925;-83
2023/11/20 03:42:34;;;;;;;;;;;;;;;-6.81;71.14;99993.13;5012484;28;19925;-83
2023/11/20 03:45:00;;;;;;;;;;;;;;;-6.86;71.44;99990.09;5005016;28;20635;-82
2023/11/20 03:47:26;;;;;;;;;;;;;;;-6.84;71.44;100004.06;5004432;28;19935;-84
2023/11/20 03:49:53;;;;;;;;;;;;;;;-6.77;70.53;99994.47;5002779;28;19972;-83
2023/11/20 03:52:19;;;;;;;;;;;;;;;-6.73;69.86;99995.00;5004072;28;19925;-83
2023/11/20 03:54:44;;;;;;;;;;;;;;;-6.72;70.32;99999.31;5022436;28;19926;-84
2023/11/20 03:57:13;;;;;;;;;;;;;;;-6.74;70.59;99998.66;5002528;28;20394;-83
2023/11/20 03:59:42;;;;;;;;;;;;;;;-6.78;70.84;100003.44;5001224;28;19932;-82
2023/11/20 04:02:08;;;;;;;;;;;;;;;-6.76;70.77;100000.63;4987880;28;19933;-85
2023/11/20 04:04:34;;;;;;;;;;;;;;;-6.78;70.74;99995.47;4999835;28;20465;-75
2023/11/20 04:06:59;;;;;;;;;;;;;;;-6.80;70.49;99992.13;5017140;28;20383;-73
2023/11/20 04:09:25;;;;;;;;;;;;;;;-6.73;70.66;99987.84;5012539;28;19929;-74
2023/11/20 04:11:51;;;;;;;;;;;;;;;-6.72;71.23;99973.53;4999961;28;19951;-73
2023/11/20 04:14:19;;;;;;;;;;;;;;;-6.63;71.30;99976.25;4999565;28;19931;-73
2023/11/20 04:16:46;;;;;;;;;;;;;;;-6.67;71.04;99975.75;4994985;28;19926;-74
2023/11/20 04:19:13;;;;;;;;;;;;;;;-6.67;70.54;99983.72;4993930;28;19926;-73
2023/11/20 04:21:39;;;;;;;;;;;;;;;-6.64;70.74;99969.28;5002144;28;20415;-73
2023/11/20 04:24:05;;;;;;;;;;;;;;;-6.62;69.97;99961.97;4993679;28;19978;-73
2023/11/20 04:26:31;;;;;;;;;;;;;;;-6.72;70.96;99962.91;5004327;28;19961;-74
2023/11/20 04:28:58;;;;;;;;;;;;;;;-6.75;71.11;99949.94;5000416;28;20417;-74
2023/11/20 04:31:26;;;;;;;;;;;;;;;-6.75;70.86;99931.31;5015665;28;19925;-74
2023/11/20 04:33:52;;;;;;;;;;;;;;;-6.68;70.56;99922.72;5002050;28;19925;-74
2023/11/20 04:36:19;;;;;;;;;;;;;;;-6.64;70.84;99906.25;5001731;28;19937;-73
2023/11/20 04:38:45;;;;;;;;;;;;;;;-6.74;70.88;99898.41;4996390;28;19933;-74
2023/11/20 04:41:10;;;;;;;;;;;;;;;-6.74;71.22;99893.06;4998458;28;19952;-74
2023/11/20 04:43:36;;;;;;;;;;;;;;;-6.79;70.81;99881.25;4999154;28;19936;-83
2023/11/20 04:46:02;;;;;;;;;;;;;;;-6.78;71.14;99897.06;5028707;28;19925;-82
2023/11/20 04:48:29;;;;;;;;;;;;;;;-6.75;71.14;99895.91;4999033;28;20024;-83
2023/11/20 04:50:55;;;;;;;;;;;;;;;-6.71;71.83;99900.75;5000231;28;19925;-83
2023/11/20 04:53:24;;;;;;;;;;;;;;;-6.68;72.02;99902.25;4978467;28;20036;-74
2023/11/20 04:55:50;;;;;;;;;;;;;;;-6.73;72.48;99891.25;4996975;28;19951;-74
2023/11/20 04:58:21;;;;;;;;;;;;;;;-6.74;72.48;99889.59;5023965;28;19968;-74
2023/11/20 05:00:47;;;;;;;;;;;;;;;-6.74;72.98;99890.41;5001902;28;19973;-74
2023/11/20 05:03:13;;;;;;;;;;;;;;;-6.75;72.96;99890.59;4999782;28;19925;-74
2023/11/20 05:05:40;;;;;;;;;;;;;;;-6.85;72.68;99888.88;5000324;28;19943;-74
2023/11/20 05:08:06;;;;;;;;;;;;;;;-6.82;72.40;99894.88;5015569;28;19995;-74
2023/11/20 05:10:32;;;;;;;;;;;;;;;-6.83;72.52;99894.06;5006934;28;19925;-74
2023/11/20 05:12:58;;;;;;;;;;;;;;;-6.84;72.72;99895.84;4997788;28;20016;-74
2023/11/20 05:15:24;;;;;;;;;;;;;;;-6.84;72.43;99905.69;4976407;28;20054;-73
2023/11/20 05:17:50;;;;;;;;;;;;;;;-6.86;72.85;99908.50;4980367;28;20367;-74
2023/11/20 05:20:16;;;;;;;;;;;;;;;-6.85;72.35;99912.81;5002172;28;19929;-83
2023/11/20 05:22:43;;;;;;;;;;;;;;;-6.88;72.41;99910.47;5019898;28;20002;-82
2023/11/20 05:25:09;;;;;;;;;;;;;;;-6.93;72.29;99918.09;4999930;28;19962;-81
2023/11/20 05:27:35;;;;;;;;;;;;;;;-6.91;72.27;99916.13;4976864;28;20429;-82
2023/11/20 05:30:01;;;;;;;;;;;;;;;-6.84;72.00;99913.66;5000693;28;19925;-74
2023/11/20 05:32:27;;;;;;;;;;;;;;;-6.78;71.85;99904.22;4989188;28;19925;-74
2023/11/20 05:34:52;;;;;;;;;;;;;;;-6.74;71.52;99895.72;4985457;28;20028;-75
2023/11/20 05:37:18;;;;;;;;;;;;;;;-6.75;71.26;99877.28;4980087;28;19933;-74
2023/11/20 05:39:46;;;;;;;;;;;;;;;-6.62;71.45;99885.66;4980525;28;19926;-75
2023/11/20 05:42:12;;;;;;;;;;;;;;;-6.60;71.38;99885.50;4990953;28;20215;-74
2023/11/20 05:44:38;;;;;;;;;;;;;;;-6.59;71.48;99881.84;5001169;28;20023;-82
2023/11/20 05:47:04;;;;;;;;;;;;;;;-6.47;72.10;99880.53;5007031;28;20341;-74
2023/11/20 05:49:30;;;;;;;;;;;;;;;-6.49;71.80;99865.72;5031615;28;19925;-82
2023/11/20 05:51:57;;;;;;;;;;;;;;;-6.43;70.99;99881.88;5001911;28;19967;-82
2023/11/20 05:54:23;;;;;;;;;;;;;;;-6.48;71.23;99889.53;5020284;28;20434;-82
2023/11/20 05:56:50;;;;;;;;;;;;;;;-6.46;71.40;99892.03;5016703;28;20022;-82
2023/11/20 05:59:16;;;;;;;;;;;;;;;-6.47;71.03;99895.69;4995561;28;20387;-83
2023/11/20 06:01:42;;;;;;;;;;;;;;;-6.47;71.60;99890.38;4999812;28;20274;-79
2023/11/20 06:04:08;;;;;;;;;;;;;;;-6.50;71.56;99888.00;4993903;28;19964;-74
2023/11/20 06:06:35;;;;;;;;;;;;;;;-6.39;71.47;99886.91;4997793;28;20073;-75
2023/11/20 06:09:04;;;;;;;;;;;;;;;-6.37;71.31;99891.06;4988770;28;19926;-73
2023/11/20 06:11:30;;;;;;;;;;;;;;;-6.35;71.69;99905.03;4998380;28;19932;-73
2023/11/20 06:13:58;;;;;;;;;;;;;;;-6.34;71.46;99893.38;5019789;28;19933;-73
2023/11/20 06:16:24;;;;;;;;;;;;;;;-6.24;71.98;99887.94;5003282;28;19987;-73
2023/11/20 06:18:50;;;;;;;;;;;;;;;-6.23;71.34;99891.41;5002254;28;19925;-73
2023/11/20 06:21:16;;;;;;;;;;;;;;;-6.19;71.11;99885.63;5017328;28;19974;-74
2023/11/20 06:23:42;;;;;;;;;;;;;;;-6.24;70.17;99889.75;5000882;28;19923;-74
2023/11/20 06:26:08;;;;;;;;;;;;;;;-6.31;70.66;99876.25;5001464;28;19936;-73
2023/11/20 06:28:34;;;;;;;;;;;;;;;-6.35;70.48;99866.94;5002386;28;19978;-74
2023/11/20 06:31:03;;;;;;;;;;;;;;;-6.44;70.73;99872.22;5001129;28;19925;-79
2023/11/20 06:33:29;;;;;;;;;;;;;;;-6.43;71.25;99870.41;5007125;28;20391;-79
2023/11/20 06:35:55;;;;;;;;;;;;;;;-6.50;70.65;99867.56;4995220;28;19926;-79
2023/11/20 06:38:22;;;;;;;;;;;;;;;-6.51;70.48;99860.59;5016753;28;19986;-79
2023/11/20 06:40:48;;;;;;;;;;;;;;;-6.57;70.12;99870.03;5002232;28;19925;-74
2023/11/20 06:43:14;;;;;;;;;;;;;;;-6.60;70.78;99870.38;4963260;28;20020;-74
2023/11/20 06:45:40;;;;;;;;;;;;;;;-6.52;70.93;99876.69;4988397;28;20023;-74
2023/11/20 06:48:08;;;;;;;;;;;;;;;-6.48;70.75;99875.38;4998591;28;19990;-74
2023/11/20 06:50:34;;;;;;;;;;;;;;;-6.44;70.39;99879.41;5009275;28;19925;-79
2023/11/20 06:53:02;;;;;;;;;;;;;;;-6.49;70.08;99885.19;4984035;28;19929;-80
2023/11/20 06:55:30;;;;;;;;;;;;;;;-6.52;70.10;99880.22;5006116;28;19932;-79
2023/11/20 06:57:56;;;;;;;;;;;;;;;-6.51;70.41;99889.84;4997650;28;20818;-79
2023/11/20 07:00:22;;;;;;;;;;;;;;;-6.53;70.72;99881.22;5010109;28;20295;-78
2023/11/20 07:02:48;;;;;;;;;;;;;;;-6.42;71.38;99883.53;4986005;28;20336;-79
2023/11/20 07:05:16;;;;;;;;;;;;;;;-6.43;70.58;99862.44;5006520;28;20023;-74
2023/11/20 07:07:50;;;;;;;;;;;;;;;-6.28;71.24;99866.13;4999769;28;19926;-79
2023/11/20 07:10:22;;;;;;;;;;;;;;;-6.20;71.21;99862.66;4980367;28;19929;-79
2023/11/20 07:12:47;;;;;;;;;;;;;;;-6.19;71.04;99853.66;4991357;28;20391;-79
2023/11/20 07:15:13;;;;;;;;;;;;;;;-6.17;71.05;99858.81;5002379;28;19940;-78
2023/11/20 07:17:39;;;;;;;;;;;;;;;-6.14;70.44;99863.84;5004432;28;19925;-79
2023/11/20 07:20:07;;;;;;;;;;;;;;;-6.12;69.99;99849.34;5023271;28;19986;-74
2023/11/20 07:22:35;;;;;;;;;;;;;;;-6.22;69.84;99826.53;5011941;28;20481;-74
2023/11/20 07:25:00;;;;;;;;;;;;;;;-6.16;69.54;99825.91;5005302;28;19933;-73
2023/11/20 07:27:26;;;;;;;;;;;;;;;-6.16;69.51;99823.22;4999738;28;19930;-73
2023/11/20 07:29:52;;;;;;;;;;;;;;;-6.18;69.40;99820.72;5005316;28;19946;-74
2023/11/20 07:32:18;;;;;;;;;;;;;;;-6.17;69.67;99825.06;4999743;28;20152;-73
2023/11/20 07:34:44;;;;;;;;;;;;;;;-6.09;69.33;99836.69;4996641;28;19930;-74
2023/11/20 07:37:09;;;;;;;;;;;;;;;-6.10;69.51;99827.03;5008727;28;19925;-73
2023/11/20 07:39:36;;;;;;;;;;;;;;;-6.04;69.47;99821.06;5013471;28;20221;-73
2023/11/20 07:42:03;;;;;;;;;;;;;;;-6.12;69.13;99806.75;5009331;28;19964;-73
2023/11/20 07:44:30;;;;;;;;;;;;;;;-6.24;69.40;99820.56;5010512;28;19961;-79
2023/11/20 07:46:55;;;;;;;;;;;;;;;-6.24;69.46;99820.56;5014798;28;19970;-78
2023/11/20 07:49:21;;;;;;;;;;;;;;;-6.21;69.51;99822.88;5011353;28;19929;-74
2023/11/20 07:51:47;;;;;;;;;;;;;;;-6.17;69.22;99806.41;5006853;28;19948;-73
2023/11/20 07:54:13;;;;;;;;;;;;;;;-6.17;69.26;99795.75;4999768;28;19925;-79
2023/11/20 07:56:40;;;;;;;;;;;;;;;-6.10;69.51;99779.13;5009435;28;19932;-74
2023/11/20 07:59:06;;;;;;;;;;;;;;;-6.03;68.81;99782.78;5013382;28;20340;-75
2023/11/20 08:01:32;;;;;;;;;;;;;;;-5.95;69.02;99776.59;5004126;28;20345;-73
2023/11/20 08:03:58;;;;;;;;;;;;;;;-5.83;68.63;99775.25;5007625;28;19931;-73
2023/11/20 08:06:24;;;;;;;;;;;;;;;-5.78;68.51;99775.59;5016261;28;19948;-74
2023/11/20 08:08:50;;;;;;;;;;;;;;;-5.74;68.31;99779.56;5019464;28;20285;-75
2023/11/20 08:11:17;;;;;;;;;;;;;;;-5.74;68.00;99773.41;5003880;28;19932;-74
2023/11/20 08:13:44;;;;;;;;;;;;;;;-5.76;68.34;99776.25;5016795;28;20344;-74
2023/11/20 08:16:10;;;;;;;;;;;;;;;-5.70;67.96;99766.75;5015959;28;20418;-74
2023/11/20 08:18:36;;;;;;;;;;;;;;;-5.68;68.34;99762.06;5003133;28;19930;-74
2023/11/20 08:21:02;;;;;;;;;;;;;;;-5.67;68.30;99755.75;5078348;28;19946;-74
2023/11/20 08:23:29;;;;;;;;;;;;;;;-5.69;68.36;99763.09;5038373;28;20401;-74
2023/11/20 08:25:55;;;;;;;;;;;;;;;-5.66;68.28;99769.91;5010628;28;19952;-74
2023/11/20 08:28:22;;;;;;;;;;;;;;;-5.63;68.33;99765.06;5017944;28;19925;-73
2023/11/20 08:30:50;;;;;;;;;;;;;;;-5.61;68.31;99765.75;5018750;28;19925;-79
2023/11/20 08:33:15;;;;;;;;;;;;;;;-5.59;67.98;99766.41;5002593;28;20002;-79
2023/11/20 08:35:43;;;;;;;;;;;;;;;-5.60;67.98;99770.06;5009516;28;19937;-79
2023/11/20 08:38:09;;;;;;;;;;;;;;;-5.62;68.11;99763.22;5010845;28;19932;-79
2023/11/20 08:40:36;;;;;;;;;;;;;;;-5.56;67.79;99763.38;5000132;28;19925;-80
2023/11/20 08:43:19;;;;;;;;;;;;;;;-5.56;67.95;99759.88;4989391;28;19932;-79
2023/11/20 08:45:45;;;;;;;;;;;;;;;-5.44;68.02;99757.69;5006075;28;20505;-74
2023/11/20 08:48:12;;;;;;;;;;;;;;;-5.41;67.58;99752.03;5013206;28;20279;-79
2023/11/20 08:50:38;;;;;;;;;;;;;;;-5.55;67.74;99737.56;5002685;28;19933;-79
2023/11/20 08:53:05;;;;;;;;;;;;;;;-5.51;67.70;99756.72;5033881;28;19936;-79
2023/11/20 08:55:31;;;;;;;;;;;;;;;-5.52;67.65;99747.91;4998892;28;20103;-79
2023/11/20 08:57:58;;;;;;;;;;;;;;;-5.59;67.92;99753.06;5006860;28;20015;-79
2023/11/20 09:00:24;;;;;;;;;;;;;;;-5.59;67.98;99746.91;5015539;28;20404;-79
2023/11/20 09:02:50;;;;;;;;;;;;;;;-5.52;68.05;99739.91;5032106;28;19934;-79
2023/11/20 09:05:20;;;;;;;;;;;;;;;-5.49;67.73;99738.72;5006408;28;19930;-79
2023/11/20 09:07:46;;;;;;;;;;;;;;;-5.53;67.88;99721.41;4997000;28;20295;-73
2023/11/20 09:10:13;;;;;;;;;;;;;;;-5.43;68.00;99730.84;5008304;28;19925;-73
2023/11/20 09:12:39;;;;;;;;;;;;;;;-5.38;67.81;99734.88;5003441;28;19931;-73
2023/11/20 09:15:06;;;;;;;;;;;;;;;-5.31;67.45;99733.16;5006641;28;19931;-74
2023/11/20 09:17:32;;;;;;;;;;;;;;;-5.32;67.51;99724.31;5014005;28;19958;-78
2023/11/20 09:19:59;;;;;;;;;;;;;;;-5.30;67.73;99716.16;5038081;28;20003;-79
2023/11/20 09:22:26;;;;;;;;;;;;;;;-5.24;67.59;99727.97;5066015;28;19932;-78
2023/11/20 09:24:53;;;;;;;;;;;;;;;-5.21;67.28;99728.47;5106795;28;20010;-79
2023/11/20 09:27:19;;;;;;;;;;;;;;;-5.21;67.62;99722.28;5086651;28;20047;-79
2023/11/20 09:29:45;;;;;;;;;;;;;;;-5.21;67.61;99728.47;5068499;28;19987;-79
2023/11/20 09:32:11;;;;;;;;;;;;;;;-5.19;67.58;99733.59;5018087;28;19925;-79
2023/11/20 09:34:38;;;;;;;;;;;;;;;-5.20;67.57;99737.28;5004955;28;20819;-74
2023/11/20 09:37:04;;;;;;;;;;;;;;;-5.16;67.71;99738.59;5009544;28;19975;-72
2023/11/20 09:39:32;;;;;;;;;;;;;;;-5.13;67.59;99732.94;5014251;28;20028;-74
2023/11/20 09:42:00;;;;;;;;;;;;;;;-5.07;67.37;99734.03;5003784;28;19926;-74
2023/11/20 09:44:27;;;;;;;;;;;;;;;-5.16;67.54;99736.75;4969037;28;20032;-79
2023/11/20 09:46:54;;;;;;;;;;;;;;;-5.18;67.81;99744.09;5010125;28;20028;-79
2023/11/20 09:49:24;;;;;;;;;;;;;;;-5.09;67.61;99734.22;4986343;28;20316;-74
2023/11/20 09:51:51;;;;;;;;;;;;;;;-5.06;67.42;99735.72;5010312;28;19925;-75
2023/11/20 09:54:17;;;;;;;;;;;;;;;-5.13;67.48;99735.59;4996013;28;20028;-74
2023/11/20 09:56:45;;;;;;;;;;;;;;;-5.11;67.71;99738.91;5000797;28;20023;-74
2023/11/20 09:59:11;;;;;;;;;;;;;;;-5.06;67.64;99730.41;5002992;28;19932;-73
2023/11/20 10:01:38;;;;;;;;;;;;;;;-5.07;67.69;99723.38;4987929;28;20292;-74
2023/11/20 10:04:04;;;;;;;;;;;;;;;-5.05;67.77;99719.53;5029799;28;19965;-79
2023/11/20 10:06:33;;;;;;;;;;;;;;;-5.00;67.75;99727.03;5031532;28;20358;-80
2023/11/20 10:08:59;;;;;;;;;;;;;;;-4.91;67.29;99733.16;4999548;28;19929;-74
2023/11/20 10:11:26;;;;;;;;;;;;;;;-4.89;67.46;99726.63;5000929;28;20384;-74
2023/11/20 10:13:55;;;;;;;;;;;;;;;-4.90;67.73;99729.47;4996909;28;20602;-73
2023/11/20 10:16:24;;;;;;;;;;;;;;;-4.89;67.63;99723.97;4987691;28;20232;-74
2023/11/20 10:18:51;;;;;;;;;;;;;;;-4.94;67.82;99720.16;5005075;28;19929;-79
2023/11/20 10:21:18;;;;;;;;;;;;;;;-5.03;67.96;99714.03;4986019;28;19929;-78
2023/11/20 10:23:45;;;;;;;;;;;;;;;-5.08;68.43;99708.38;5025396;28;20527;-78
2023/11/20 10:26:11;;;;;;;;;;;;;;;-5.08;68.43;99711.88;5013407;28;20017;-78
2023/11/20 10:28:38;;;;;;;;;;;;;;;-5.05;68.91;99708.06;5030986;28;20342;-78
2023/11/20 10:31:05;;;;;;;;;;;;;;;-5.04;69.10;99704.38;5032204;28;19936;-78
2023/11/20 10:33:31;;;;;;;;;;;;;;;-5.00;69.25;99695.84;5014184;28;20031;-78
2023/11/20 10:36:09;;;;;;;;;;;;;;;-4.99;68.99;99691.34;5013973;28;20328;-79
2023/11/20 10:38:36;;;;;;;;;;;;;;;-4.96;69.22;99682.16;4982330;28;19951;-78
2023/11/20 10:41:03;;;;;;;;;;;;;;;-4.92;69.23;99678.13;4979828;28;19940;-74
2023/11/20 10:43:30;;;;;;;;;;;;;;;-4.92;69.04;99686.13;5038260;28;19983;-78
2023/11/20 10:45:56;;;;;;;;;;;;;;;-4.92;69.12;99686.94;5035856;28;19978;-73
2023/11/20 10:48:30;;;;;;;;;;;;;;;-4.97;69.14;99678.66;5031575;28;19932;-73
2023/11/20 10:50:57;;;;;;;;;;;;;;;-4.97;69.29;99672.50;5018445;28;19924;-74
2023/11/20 10:53:26;;;;;;;;;;;;;;;-4.97;69.49;99670.66;4989898;28;19925;-73
2023/11/20 10:55:54;;;;;;;;;;;;;;;-4.99;69.58;99665.50;5019355;28;20028;-80
2023/11/20 10:58:21;;;;;;;;;;;;;;;-5.01;69.61;99667.50;5034023;28;19926;-73
2023/11/20 11:00:47;;;;;;;;;;;;;;;-5.00;69.64;99661.16;5022822;28;20065;-73
2023/11/20 11:03:15;;;;;;;;;;;;;;;-4.93;69.59;99650.63;5040664;28;20284;-74
2023/11/20 11:05:44;;;;;;;;;;;;;;;-4.95;69.82;99654.50;4985275;28;20032;-74
2023/11/20 11:08:11;;;;;;;;;;;;;;;-5.15;69.75;99626.44;5005768;28;20387;-73
2023/11/20 11:10:40;;;;;;;;;;;;;;;-5.04;69.91;99646.53;4998346;28;19926;-73
2023/11/20 11:13:07;;;;;;;;;;;;;;;-5.06;69.74;99639.72;4991392;28;19925;-73
2023/11/20 11:15:36;;;;;;;;;;;;;;;-5.06;70.22;99631.72;5004348;28;19929;-74
2023/11/20 11:18:06;;;;;;;;;;;;;;;-5.15;70.19;99615.75;5000101;28;19932;-73
2023/11/20 11:20:35;;;;;;;;;;;;;;;-5.06;70.33;99629.88;5014803;28;20052;-74
2023/11/20 11:23:05;;;;;;;;;;;;;;;-5.05;70.51;99628.88;5002351;28;19936;-74
2023/11/20 11:25:34;;;;;;;;;;;;;;;-5.02;70.50;99628.50;4998529;28;19931;-73
2023/11/20 11:28:03;;;;;;;;;;;;;;;-5.08;70.65;99625.72;5000180;28;20368;-73
2023/11/20 11:30:34;;;;;;;;;;;;;;;-5.16;71.11;99616.78;5003534;28;19925;-73
2023/11/20 11:33:12;;;;;;;;;;;;;;;-5.19;71.25;99618.94;4991662;28;20392;-73
2023/11/20 11:35:48;;;;;;;;;;;;;;;-5.18;71.20;99615.28;5003440;28;19965;-73
2023/11/20 11:38:22;;;;;;;;;;;;;;;-5.17;71.46;99607.13;5014684;28;19977;-74
2023/11/20 11:40:57;;;;;;;;;;;;;;;-5.18;71.59;99599.28;5019273;28;19970;-74
2023/11/20 11:43:27;;;;;;;;;;;;;;;-5.15;71.85;99597.09;5051259;28;20348;-74
2023/11/20 11:45:57;;;;;;;;;;;;;;;-5.14;72.04;99595.28;5106067;28;20022;-74
2023/11/20 11:48:24;;;;;;;;;;;;;;;-5.17;71.76;99591.13;5051942;28;20388;-74
2023/11/20 11:50:50;;;;;;;;;;;;;;;-5.19;71.97;99593.13;4996813;28;19932;-74
2023/11/20 11:53:16;;;;;;;;;;;;;;;-5.20;71.64;99593.31;5007278;28;19950;-73
2023/11/20 11:55:43;;;;;;;;;;;;;;;-5.33;71.78;99581.38;4999488;28;20006;-73
2023/11/20 11:58:12;;;;;;;;;;;;;;;-5.35;71.93;99586.06;5004911;28;19931;-74
2023/11/20 12:00:39;;;;;;;;;;;;;;;-5.36;72.21;99581.72;5001240;28;20189;-74
2023/11/20 12:03:23;;;;;;;;;;;;;;;-5.32;72.15;99580.38;4998636;28;19925;-74
2023/11/20 12:06:07;;;;;;;;;;;;;;;-5.34;72.39;99579.72;5009539;28;20394;-73
2023/11/20 12:08:33;;;;;;;;;;;;;;;-5.31;72.57;99582.06;4996079;28;20050;-73
2023/11/20 12:11:01;;;;;;;;;;;;;;;-5.37;72.47;99577.41;5011104;28;20035;-74
2023/11/20 12:13:27;;;;;;;;;;;;;;;-5.40;72.45;99583.09;5000774;28;20283;-74
2023/11/20 12:15:55;;;;;;;;;;;;;;;-5.43;72.55;99580.78;4999670;28;19925;-73
2023/11/20 12:18:21;;;;;;;;;;;;;;;-5.44;72.85;99585.28;4998131;28;19985;-74
2023/11/20 12:21:01;;;;;;;;;;;;;;;-5.43;72.77;99591.44;5004602;28;19936;-74
2023/11/20 12:23:27;;;;;;;;;;;;;;;-5.42;72.86;99588.59;5001641;28;20000;-73
2023/11/20 12:25:53;;;;;;;;;;;;;;;-5.39;72.77;99594.56;4987935;28;19925;-74
2023/11/20 12:28:22;;;;;;;;;;;;;;;-5.41;72.64;99598.25;5011999;28;20383;-74
2023/11/20 12:30:48;;;;;;;;;;;;;;;-5.43;72.89;99596.78;4977338;28;20198;-73
2023/11/20 12:33:14;;;;;;;;;;;;;;;-5.41;73.21;99600.91;4981467;28;19932;-74
2023/11/20 12:35:39;;;;;;;;;;;;;;;-5.41;73.10;99592.91;4998757;28;19925;-74
2023/11/20 12:38:06;;;;;;;;;;;;;;;-5.39;73.13;99587.41;5000016;28;19957;-79
2023/11/20 12:40:32;;;;;;;;;;;;;;;-5.47;73.00;99587.47;4998182;28;19925;-79
2023/11/20 12:42:58;;;;;;;;;;;;;;;-5.51;73.18;99587.00;5003900;28;19995;-79